createdAt,value
2018-08-19T00:00:18.732Z,20.93
2018-08-19T00:00:40.479Z,20.93
2018-08-19T00:01:02.222Z,20.94
2018-08-19T00:01:23.962Z,20.94
2018-08-19T00:01:45.749Z,20.94
2018-08-19T00:02:07.494Z,20.93
2018-08-19T00:02:29.259Z,20.93
2018-08-19T00:02:51.011Z,20.93
2018-08-19T00:03:12.757Z,20.93
2018-08-19T00:03:34.520Z,20.93
2018-08-19T00:03:56.270Z,20.93
2018-08-19T00:04:18.031Z,20.94
2018-08-19T00:04:39.779Z,20.92
2018-08-19T00:05:05.443Z,20.93
2018-08-19T00:05:27.237Z,20.93
2018-08-19T00:05:48.999Z,20.95
2018-08-19T00:06:10.767Z,20.93
2018-08-19T00:06:32.528Z,20.94
2018-08-19T00:06:54.291Z,20.93
2018-08-19T00:07:16.035Z,20.93
2018-08-19T00:07:37.798Z,20.94
2018-08-19T00:07:59.585Z,20.93
2018-08-19T00:08:21.371Z,20.93
2018-08-19T00:08:43.119Z,20.93
2018-08-19T00:09:10.397Z,20.93
2018-08-19T00:09:32.156Z,20.93
2018-08-19T00:09:53.919Z,20.93
2018-08-19T00:10:15.694Z,20.93
2018-08-19T00:10:38.743Z,20.93
2018-08-19T00:11:01.659Z,20.92
2018-08-19T00:11:23.411Z,20.93
2018-08-19T00:11:45.381Z,20.93
2018-08-19T00:12:07.128Z,20.92
2018-08-19T00:12:29.407Z,20.92
2018-08-19T00:12:51.159Z,20.93
2018-08-19T00:13:13.351Z,20.92
2018-08-19T00:13:35.094Z,20.92
2018-08-19T00:13:56.858Z,20.92
2018-08-19T00:14:19.497Z,20.93
2018-08-19T00:14:41.253Z,20.93
2018-08-19T00:15:03.012Z,20.93
2018-08-19T00:15:24.764Z,20.92
2018-08-19T00:15:46.545Z,20.93
2018-08-19T00:16:08.308Z,20.93
2018-08-19T00:16:30.063Z,20.92
2018-08-19T00:16:51.806Z,20.92
2018-08-19T00:17:13.559Z,20.92
2018-08-19T00:17:35.309Z,20.91
2018-08-19T00:17:57.054Z,20.92
2018-08-19T00:18:18.811Z,20.91
2018-08-19T00:18:40.563Z,20.91
2018-08-19T00:19:02.314Z,20.91
2018-08-19T00:19:24.072Z,20.91
2018-08-19T00:19:45.863Z,20.92
2018-08-19T00:20:07.638Z,20.93
2018-08-19T00:20:29.389Z,20.92
2018-08-19T00:20:51.154Z,20.92
2018-08-19T00:21:12.906Z,20.91
2018-08-19T00:21:34.647Z,20.91
2018-08-19T00:21:56.615Z,20.91
2018-08-19T00:22:18.359Z,20.92
2018-08-19T00:22:40.324Z,20.92
2018-08-19T00:23:02.099Z,20.92
2018-08-19T00:23:23.858Z,20.91
2018-08-19T00:23:48.628Z,20.91
2018-08-19T00:24:10.394Z,20.91
2018-08-19T00:24:32.142Z,20.92
2018-08-19T00:24:53.903Z,20.91
2018-08-19T00:25:15.658Z,20.92
2018-08-19T00:25:38.289Z,20.92
2018-08-19T00:26:00.067Z,20.92
2018-08-19T00:26:21.805Z,20.92
2018-08-19T00:26:43.554Z,20.91
2018-08-19T00:27:05.300Z,20.92
2018-08-19T00:27:27.056Z,20.91
2018-08-19T00:27:48.809Z,20.92
2018-08-19T00:28:10.868Z,20.92
2018-08-19T00:28:32.627Z,20.91
2018-08-19T00:28:54.376Z,20.92
2018-08-19T00:29:16.403Z,20.92
2018-08-19T00:29:38.171Z,20.91
2018-08-19T00:29:59.921Z,20.92
2018-08-19T00:30:21.680Z,20.92
2018-08-19T00:30:43.433Z,20.92
2018-08-19T00:31:05.203Z,20.91
2018-08-19T00:31:26.955Z,20.91
2018-08-19T00:31:48.711Z,20.91
2018-08-19T00:32:10.450Z,20.91
2018-08-19T00:32:32.198Z,20.91
2018-08-19T00:32:53.941Z,20.91
2018-08-19T00:33:15.742Z,20.91
2018-08-19T00:33:37.489Z,20.92
2018-08-19T00:33:59.234Z,20.92
2018-08-19T00:34:33.512Z,20.91
2018-08-19T00:34:55.282Z,20.90
2018-08-19T00:35:17.033Z,20.91
2018-08-19T00:35:38.801Z,20.89
2018-08-19T00:36:00.560Z,20.90
2018-08-19T00:36:24.982Z,20.90
2018-08-19T00:36:46.746Z,20.89
2018-08-19T00:37:08.509Z,20.90
2018-08-19T00:37:30.267Z,20.90
2018-08-19T00:37:52.037Z,20.90
2018-08-19T00:38:14.758Z,20.90
2018-08-19T00:38:36.545Z,20.90
2018-08-19T00:38:58.299Z,20.90
2018-08-19T00:39:20.067Z,20.89
2018-08-19T00:39:41.828Z,20.90
2018-08-19T00:40:09.779Z,20.90
2018-08-19T00:40:31.567Z,20.89
2018-08-19T00:40:53.336Z,20.90
2018-08-19T00:41:15.091Z,20.89
2018-08-19T00:41:36.874Z,20.91
2018-08-19T00:41:58.627Z,20.90
2018-08-19T00:42:20.366Z,20.90
2018-08-19T00:42:42.130Z,20.90
2018-08-19T00:43:03.884Z,20.91
2018-08-19T00:43:25.638Z,20.91
2018-08-19T00:43:47.402Z,20.91
2018-08-19T00:44:09.159Z,20.91
2018-08-19T00:44:31.052Z,20.92
2018-08-19T00:44:52.802Z,20.91
2018-08-19T00:45:15.785Z,20.91
2018-08-19T00:45:37.556Z,20.91
2018-08-19T00:45:59.301Z,20.90
2018-08-19T00:46:21.058Z,20.90
2018-08-19T00:46:42.844Z,20.91
2018-08-19T00:47:04.601Z,20.90
2018-08-19T00:47:26.383Z,20.91
2018-08-19T00:47:48.888Z,20.91
2018-08-19T00:48:11.438Z,20.90
2018-08-19T00:48:33.179Z,20.90
2018-08-19T00:48:54.935Z,20.91
2018-08-19T00:49:16.700Z,20.91
2018-08-19T00:49:38.457Z,20.90
2018-08-19T00:50:02.734Z,20.91
2018-08-19T00:50:25.339Z,20.91
2018-08-19T00:50:47.120Z,20.89
2018-08-19T00:51:08.895Z,20.90
2018-08-19T00:51:30.652Z,20.91
2018-08-19T00:51:57.416Z,20.91
2018-08-19T00:52:19.175Z,20.90
2018-08-19T00:52:40.935Z,20.91
2018-08-19T00:53:02.690Z,20.89
2018-08-19T00:53:24.447Z,20.89
2018-08-19T00:53:46.216Z,20.90
2018-08-19T00:54:07.967Z,20.89
2018-08-19T00:54:30.904Z,20.90
2018-08-19T00:54:52.672Z,20.89
2018-08-19T00:55:14.425Z,20.90
2018-08-19T00:55:41.752Z,20.89
2018-08-19T00:56:03.552Z,20.89
2018-08-19T00:56:25.320Z,20.88
2018-08-19T00:56:48.817Z,20.89
2018-08-19T00:57:10.610Z,20.88
2018-08-19T00:57:32.361Z,20.89
2018-08-19T00:57:58.169Z,20.89
2018-08-19T00:58:19.935Z,20.89
2018-08-19T00:58:41.687Z,20.90
2018-08-19T00:59:03.431Z,20.90
2018-08-19T00:59:26.107Z,20.90
2018-08-19T00:59:47.865Z,20.90
2018-08-19T01:00:09.626Z,20.90
2018-08-19T01:00:31.386Z,20.90
2018-08-19T01:00:53.162Z,20.90
2018-08-19T01:01:15.467Z,20.89
2018-08-19T01:01:37.251Z,20.90
2018-08-19T01:01:59.112Z,20.90
2018-08-19T01:02:20.889Z,20.89
2018-08-19T01:02:42.654Z,20.90
2018-08-19T01:03:04.408Z,20.90
2018-08-19T01:03:26.152Z,20.90
2018-08-19T01:03:47.906Z,20.90
2018-08-19T01:04:09.967Z,20.92
2018-08-19T01:04:31.732Z,20.91
2018-08-19T01:04:53.499Z,20.90
2018-08-19T01:05:15.250Z,20.91
2018-08-19T01:05:37.005Z,20.91
2018-08-19T01:05:58.770Z,20.90
2018-08-19T01:06:20.526Z,20.90
2018-08-19T01:06:47.606Z,20.90
2018-08-19T01:07:09.355Z,20.89
2018-08-19T01:07:31.135Z,20.90
2018-08-19T01:07:52.881Z,20.90
2018-08-19T01:08:15.214Z,20.89
2018-08-19T01:08:36.962Z,20.90
2018-08-19T01:08:58.720Z,20.90
2018-08-19T01:09:20.482Z,20.89
2018-08-19T01:09:42.232Z,20.90
2018-08-19T01:10:03.992Z,20.89
2018-08-19T01:10:25.757Z,20.89
2018-08-19T01:10:47.551Z,20.90
2018-08-19T01:11:09.304Z,20.91
2018-08-19T01:11:31.815Z,20.90
2018-08-19T01:11:53.572Z,20.90
2018-08-19T01:12:15.327Z,20.90
2018-08-19T01:12:37.120Z,20.89
2018-08-19T01:12:58.886Z,20.90
2018-08-19T01:13:20.639Z,20.89
2018-08-19T01:13:42.393Z,20.90
2018-08-19T01:14:04.156Z,20.89
2018-08-19T01:14:25.917Z,20.89
2018-08-19T01:14:47.671Z,20.89
2018-08-19T01:15:09.431Z,20.90
2018-08-19T01:15:31.174Z,20.90
2018-08-19T01:15:52.942Z,20.90
2018-08-19T01:16:14.708Z,20.90
2018-08-19T01:16:36.479Z,20.91
2018-08-19T01:16:58.237Z,20.89
2018-08-19T01:17:19.992Z,20.90
2018-08-19T01:17:42.744Z,20.90
2018-08-19T01:18:04.503Z,20.90
2018-08-19T01:18:26.256Z,20.89
2018-08-19T01:18:50.808Z,20.89
2018-08-19T01:19:12.566Z,20.89
2018-08-19T01:19:34.339Z,20.90
2018-08-19T01:20:00.437Z,20.90
2018-08-19T01:20:22.958Z,20.89
2018-08-19T01:20:44.728Z,20.89
2018-08-19T01:21:07.075Z,20.89
2018-08-19T01:21:28.924Z,20.88
2018-08-19T01:21:50.935Z,20.90
2018-08-19T01:22:12.691Z,20.89
2018-08-19T01:22:34.460Z,20.89
2018-08-19T01:22:56.241Z,20.89
2018-08-19T01:23:18.007Z,20.89
2018-08-19T01:23:39.802Z,20.89
2018-08-19T01:24:04.416Z,20.89
2018-08-19T01:24:26.167Z,20.90
2018-08-19T01:24:47.915Z,20.90
2018-08-19T01:25:09.680Z,20.89
2018-08-19T01:25:31.444Z,20.90
2018-08-19T01:25:53.207Z,20.89
2018-08-19T01:26:14.986Z,20.88
2018-08-19T01:26:37.969Z,20.89
2018-08-19T01:26:59.722Z,20.89
2018-08-19T01:27:22.500Z,20.88
2018-08-19T01:27:44.252Z,20.89
2018-08-19T01:28:06.029Z,20.90
2018-08-19T01:28:27.779Z,20.89
2018-08-19T01:28:49.523Z,20.90
2018-08-19T01:29:11.863Z,20.90
2018-08-19T01:29:39.153Z,20.90
2018-08-19T01:30:00.897Z,20.91
2018-08-19T01:30:23.053Z,20.90
2018-08-19T01:30:44.813Z,20.89
2018-08-19T01:31:06.562Z,20.90
2018-08-19T01:31:28.331Z,20.90
2018-08-19T01:31:50.095Z,20.89
2018-08-19T01:32:12.795Z,20.90
2018-08-19T01:32:34.550Z,20.90
2018-08-19T01:32:56.314Z,20.90
2018-08-19T01:33:18.095Z,20.90
2018-08-19T01:33:39.877Z,20.91
2018-08-19T01:34:01.635Z,20.91
2018-08-19T01:34:23.389Z,20.89
2018-08-19T01:34:46.070Z,20.90
2018-08-19T01:35:07.837Z,20.90
2018-08-19T01:35:35.059Z,20.91
2018-08-19T01:35:56.817Z,20.90
2018-08-19T01:36:18.571Z,20.91
2018-08-19T01:36:40.340Z,20.90
2018-08-19T01:37:02.111Z,20.90
2018-08-19T01:37:23.859Z,20.90
2018-08-19T01:37:45.614Z,20.90
2018-08-19T01:38:07.350Z,20.90
2018-08-19T01:38:29.135Z,20.90
2018-08-19T01:38:50.906Z,20.89
2018-08-19T01:39:13.351Z,20.90
2018-08-19T01:39:35.095Z,20.90
2018-08-19T01:39:56.848Z,20.88
2018-08-19T01:40:18.928Z,20.89
2018-08-19T01:40:40.676Z,20.89
2018-08-19T01:41:02.423Z,20.90
2018-08-19T01:41:24.541Z,20.91
2018-08-19T01:41:46.313Z,20.90
2018-08-19T01:42:08.551Z,20.90
2018-08-19T01:42:30.327Z,20.90
2018-08-19T01:42:52.100Z,20.90
2018-08-19T01:43:13.853Z,20.90
2018-08-19T01:43:35.644Z,20.89
2018-08-19T01:43:58.651Z,20.89
2018-08-19T01:44:21.399Z,20.88
2018-08-19T01:44:43.182Z,20.89
2018-08-19T01:45:04.972Z,20.90
2018-08-19T01:45:26.723Z,20.90
2018-08-19T01:45:48.482Z,20.90
2018-08-19T01:46:10.222Z,20.90
2018-08-19T01:46:32.957Z,20.90
2018-08-19T01:47:01.162Z,20.90
2018-08-19T01:47:22.938Z,20.90
2018-08-19T01:47:44.704Z,20.89
2018-08-19T01:48:06.458Z,20.89
2018-08-19T01:48:28.771Z,20.89
2018-08-19T01:48:50.575Z,20.89
2018-08-19T01:49:12.327Z,20.90
2018-08-19T01:49:34.092Z,20.90
2018-08-19T01:49:55.866Z,20.90
2018-08-19T01:50:18.231Z,20.91
2018-08-19T01:50:40.003Z,20.89
2018-08-19T01:51:01.766Z,20.90
2018-08-19T01:51:23.533Z,20.90
2018-08-19T01:51:45.582Z,20.90
2018-08-19T01:52:07.335Z,20.90
2018-08-19T01:52:29.084Z,20.90
2018-08-19T01:52:51.027Z,20.89
2018-08-19T01:53:12.787Z,20.89
2018-08-19T01:53:34.535Z,20.90
2018-08-19T01:53:56.312Z,20.90
2018-08-19T01:54:24.006Z,20.90
2018-08-19T01:54:45.779Z,20.89
2018-08-19T01:55:07.570Z,20.89
2018-08-19T01:55:29.321Z,20.89
2018-08-19T01:55:51.070Z,20.90
2018-08-19T01:56:12.835Z,20.89
2018-08-19T01:56:35.287Z,20.89
2018-08-19T01:56:58.317Z,20.90
2018-08-19T01:57:20.058Z,20.89
2018-08-19T01:57:45.510Z,20.88
2018-08-19T01:58:07.265Z,20.90
2018-08-19T01:58:30.700Z,20.89
2018-08-19T01:58:52.460Z,20.89
2018-08-19T01:59:14.279Z,20.89
2018-08-19T01:59:36.131Z,20.89
2018-08-19T01:59:57.889Z,20.89
2018-08-19T02:00:19.730Z,20.89
2018-08-19T02:00:41.489Z,20.89
2018-08-19T02:01:03.243Z,20.89
2018-08-19T02:01:25.000Z,20.88
2018-08-19T02:01:46.750Z,20.89
2018-08-19T02:02:08.516Z,20.89
2018-08-19T02:02:30.266Z,20.89
2018-08-19T02:02:52.828Z,20.89
2018-08-19T02:03:14.576Z,20.90
2018-08-19T02:03:36.336Z,20.90
2018-08-19T02:03:58.106Z,20.89
2018-08-19T02:04:20.376Z,20.89
2018-08-19T02:04:47.564Z,20.89
2018-08-19T02:05:09.320Z,20.89
2018-08-19T02:05:31.068Z,20.89
2018-08-19T02:05:52.827Z,20.89
2018-08-19T02:06:14.593Z,20.89
2018-08-19T02:06:36.345Z,20.90
2018-08-19T02:06:58.093Z,20.89
2018-08-19T02:07:19.851Z,20.90
2018-08-19T02:07:41.624Z,20.89
2018-08-19T02:08:04.533Z,20.90
2018-08-19T02:08:26.292Z,20.90
2018-08-19T02:08:48.073Z,20.89
2018-08-19T02:09:11.689Z,20.89
2018-08-19T02:09:33.458Z,20.90
2018-08-19T02:09:58.743Z,20.89
2018-08-19T02:10:20.496Z,20.89
2018-08-19T02:10:42.253Z,20.90
2018-08-19T02:11:04.028Z,20.91
2018-08-19T02:11:25.803Z,20.89
2018-08-19T02:11:48.263Z,20.90
2018-08-19T02:12:10.018Z,20.91
2018-08-19T02:12:39.824Z,20.90
2018-08-19T02:13:01.904Z,20.91
2018-08-19T02:13:23.664Z,20.91
2018-08-19T02:13:45.421Z,20.91
2018-08-19T02:14:07.212Z,20.91
2018-08-19T02:14:28.979Z,20.92
2018-08-19T02:14:50.758Z,20.91
2018-08-19T02:15:12.525Z,20.91
2018-08-19T02:15:34.302Z,20.90
2018-08-19T02:15:58.736Z,20.90
2018-08-19T02:16:20.490Z,20.91
2018-08-19T02:16:42.266Z,20.90
2018-08-19T02:17:04.020Z,20.89
2018-08-19T02:17:25.795Z,20.89
2018-08-19T02:17:53.075Z,20.89
2018-08-19T02:18:14.830Z,20.90
2018-08-19T02:18:36.574Z,20.90
2018-08-19T02:18:58.339Z,20.90
2018-08-19T02:19:20.130Z,20.90
2018-08-19T02:19:41.905Z,20.90
2018-08-19T02:20:03.694Z,20.89
2018-08-19T02:20:25.448Z,20.90
2018-08-19T02:20:47.231Z,20.90
2018-08-19T02:21:08.988Z,20.89
2018-08-19T02:21:30.739Z,20.90
2018-08-19T02:21:53.139Z,20.89
2018-08-19T02:22:14.896Z,20.89
2018-08-19T02:22:36.656Z,20.89
2018-08-19T02:22:59.291Z,20.90
2018-08-19T02:23:21.039Z,20.89
2018-08-19T02:23:42.795Z,20.88
2018-08-19T02:24:04.552Z,20.88
2018-08-19T02:24:26.311Z,20.89
2018-08-19T02:24:48.072Z,20.89
2018-08-19T02:25:09.859Z,20.89
2018-08-19T02:25:31.620Z,20.89
2018-08-19T02:25:53.395Z,20.89
2018-08-19T02:26:19.418Z,20.89
2018-08-19T02:26:41.184Z,20.88
2018-08-19T02:27:02.944Z,20.88
2018-08-19T02:27:24.711Z,20.88
2018-08-19T02:27:46.492Z,20.89
2018-08-19T02:28:08.382Z,20.89
2018-08-19T02:28:30.153Z,20.89
2018-08-19T02:28:51.915Z,20.90
2018-08-19T02:29:17.927Z,20.89
2018-08-19T02:29:39.683Z,20.90
2018-08-19T02:30:01.434Z,20.90
2018-08-19T02:30:23.224Z,20.90
2018-08-19T02:30:50.502Z,20.89
2018-08-19T02:31:12.256Z,20.90
2018-08-19T02:31:33.994Z,20.90
2018-08-19T02:31:58.930Z,20.90
2018-08-19T02:32:20.708Z,20.89
2018-08-19T02:32:42.452Z,20.89
2018-08-19T02:33:04.466Z,20.90
2018-08-19T02:33:26.226Z,20.90
2018-08-19T02:33:47.978Z,20.89
2018-08-19T02:34:09.718Z,20.89
2018-08-19T02:34:40.546Z,20.89
2018-08-19T02:35:02.321Z,20.89
2018-08-19T02:35:24.105Z,20.89
2018-08-19T02:35:50.120Z,20.90
2018-08-19T02:36:11.863Z,20.90
2018-08-19T02:36:33.623Z,20.90
2018-08-19T02:36:56.003Z,20.90
2018-08-19T02:37:18.219Z,20.89
2018-08-19T02:37:39.967Z,20.88
2018-08-19T02:38:01.714Z,20.88
2018-08-19T02:38:23.743Z,20.89
2018-08-19T02:38:45.513Z,20.89
2018-08-19T02:39:07.286Z,20.89
2018-08-19T02:39:29.036Z,20.89
2018-08-19T02:39:50.804Z,20.89
2018-08-19T02:40:16.691Z,20.88
2018-08-19T02:40:38.466Z,20.89
2018-08-19T02:41:00.214Z,20.89
2018-08-19T02:41:21.965Z,20.89
2018-08-19T02:41:47.979Z,20.88
2018-08-19T02:42:09.732Z,20.90
2018-08-19T02:42:32.375Z,20.90
2018-08-19T02:42:54.127Z,20.88
2018-08-19T02:43:15.884Z,20.89
2018-08-19T02:43:37.644Z,20.88
2018-08-19T02:43:59.390Z,20.90
2018-08-19T02:44:21.141Z,20.88
2018-08-19T02:44:42.891Z,20.89
2018-08-19T02:45:06.399Z,20.89
2018-08-19T02:45:28.157Z,20.89
2018-08-19T02:45:49.974Z,20.89
2018-08-19T02:46:11.734Z,20.89
2018-08-19T02:46:33.478Z,20.89
2018-08-19T02:46:55.227Z,20.89
2018-08-19T02:47:16.980Z,20.89
2018-08-19T02:47:38.740Z,20.89
2018-08-19T02:48:00.493Z,20.88
2018-08-19T02:48:22.247Z,20.89
2018-08-19T02:48:45.111Z,20.89
2018-08-19T02:49:06.885Z,20.88
2018-08-19T02:49:28.633Z,20.88
2018-08-19T02:49:50.444Z,20.88
2018-08-19T02:50:12.211Z,20.88
2018-08-19T02:50:33.975Z,20.87
2018-08-19T02:50:55.764Z,20.87
2018-08-19T02:51:18.723Z,20.88
2018-08-19T02:51:40.489Z,20.88
2018-08-19T02:52:02.248Z,20.88
2018-08-19T02:52:27.114Z,20.87
2018-08-19T02:52:48.860Z,20.88
2018-08-19T02:53:10.616Z,20.87
2018-08-19T02:53:32.385Z,20.86
2018-08-19T02:53:54.129Z,20.88
2018-08-19T02:54:15.883Z,20.88
2018-08-19T02:54:37.650Z,20.87
2018-08-19T02:55:00.613Z,20.87
2018-08-19T02:55:22.380Z,20.87
2018-08-19T02:55:44.134Z,20.88
2018-08-19T02:56:05.917Z,20.89
2018-08-19T02:56:27.672Z,20.88
2018-08-19T02:56:49.433Z,20.88
2018-08-19T02:57:11.195Z,20.86
2018-08-19T02:57:33.808Z,20.87
2018-08-19T02:58:00.960Z,20.86
2018-08-19T02:58:22.720Z,20.87
2018-08-19T02:58:45.373Z,20.88
2018-08-19T02:59:07.126Z,20.88
2018-08-19T02:59:28.883Z,20.88
2018-08-19T02:59:50.677Z,20.88
2018-08-19T03:00:12.635Z,20.88
2018-08-19T03:00:34.395Z,20.88
2018-08-19T03:00:56.153Z,20.88
2018-08-19T03:01:18.501Z,20.88
2018-08-19T03:01:40.255Z,20.88
2018-08-19T03:02:02.019Z,20.88
2018-08-19T03:02:23.775Z,20.88
2018-08-19T03:02:45.544Z,20.88
2018-08-19T03:03:07.294Z,20.87
2018-08-19T03:03:29.048Z,20.88
2018-08-19T03:03:50.816Z,20.87
2018-08-19T03:04:12.575Z,20.87
2018-08-19T03:04:34.322Z,20.88
2018-08-19T03:04:56.893Z,20.88
2018-08-19T03:05:18.663Z,20.88
2018-08-19T03:05:42.763Z,20.86
2018-08-19T03:06:04.508Z,20.87
2018-08-19T03:06:26.289Z,20.86
2018-08-19T03:06:48.042Z,20.87
2018-08-19T03:07:09.778Z,20.87
2018-08-19T03:07:32.212Z,20.88
2018-08-19T03:07:53.970Z,20.87
2018-08-19T03:08:15.727Z,20.88
2018-08-19T03:08:38.170Z,20.88
2018-08-19T03:09:00.314Z,20.88
2018-08-19T03:09:22.067Z,20.88
2018-08-19T03:09:43.849Z,20.87
2018-08-19T03:10:11.670Z,20.86
2018-08-19T03:10:33.465Z,20.89
2018-08-19T03:10:55.222Z,20.86
2018-08-19T03:11:16.974Z,20.88
2018-08-19T03:11:38.760Z,20.86
2018-08-19T03:12:00.513Z,20.85
2018-08-19T03:12:22.287Z,20.87
2018-08-19T03:12:44.550Z,20.85
2018-08-19T03:13:06.303Z,20.86
2018-08-19T03:13:28.060Z,20.87
2018-08-19T03:13:49.809Z,20.88
2018-08-19T03:14:11.562Z,20.89
2018-08-19T03:14:33.318Z,20.88
2018-08-19T03:14:55.394Z,20.89
2018-08-19T03:15:17.216Z,20.88
2018-08-19T03:15:38.978Z,20.88
2018-08-19T03:16:00.764Z,20.88
2018-08-19T03:16:22.510Z,20.87
2018-08-19T03:16:44.280Z,20.87
2018-08-19T03:17:06.022Z,20.87
2018-08-19T03:17:28.598Z,20.86
2018-08-19T03:17:50.346Z,20.88
2018-08-19T03:18:12.091Z,20.85
2018-08-19T03:18:33.851Z,20.84
2018-08-19T03:18:55.609Z,20.86
2018-08-19T03:19:17.361Z,20.84
2018-08-19T03:19:39.116Z,20.85
2018-08-19T03:20:01.367Z,20.85
2018-08-19T03:20:23.119Z,20.85
2018-08-19T03:20:44.880Z,20.86
2018-08-19T03:21:06.650Z,20.86
2018-08-19T03:21:28.426Z,20.85
2018-08-19T03:21:52.391Z,20.87
2018-08-19T03:22:14.156Z,20.88
2018-08-19T03:23:39.194Z,20.87
2018-08-19T03:24:00.971Z,20.86
2018-08-19T03:24:22.727Z,20.88
2018-08-19T03:24:44.480Z,20.86
2018-08-19T03:25:06.234Z,20.87
2018-08-19T03:25:27.987Z,20.88
2018-08-19T03:25:49.766Z,20.88
2018-08-19T03:26:11.522Z,20.87
2018-08-19T03:26:33.275Z,20.88
2018-08-19T03:26:55.051Z,20.86
2018-08-19T03:27:16.975Z,20.86
2018-08-19T03:27:38.735Z,20.87
2018-08-19T03:28:00.487Z,20.86
2018-08-19T03:28:22.246Z,20.86
2018-08-19T03:28:44.002Z,20.85
2018-08-19T03:29:13.952Z,20.85
2018-08-19T03:29:39.971Z,20.85
2018-08-19T03:30:03.924Z,20.85
2018-08-19T03:30:25.691Z,20.85
2018-08-19T03:30:53.728Z,20.87
2018-08-19T03:31:15.490Z,20.86
2018-08-19T03:31:37.271Z,20.86
2018-08-19T03:32:00.360Z,20.85
2018-08-19T03:32:22.557Z,20.85
2018-08-19T03:32:49.904Z,20.87
2018-08-19T03:33:11.652Z,20.86
2018-08-19T03:33:33.408Z,20.84
2018-08-19T03:33:55.165Z,20.85
2018-08-19T03:34:16.938Z,20.86
2018-08-19T03:34:38.688Z,20.86
2018-08-19T03:35:06.038Z,20.85
2018-08-19T03:35:27.783Z,20.86
2018-08-19T03:35:49.534Z,20.86
2018-08-19T03:36:11.287Z,20.86
2018-08-19T03:36:33.040Z,20.87
2018-08-19T03:36:55.434Z,20.86
2018-08-19T03:37:17.215Z,20.86
2018-08-19T03:37:38.972Z,20.86
2018-08-19T03:38:05.008Z,20.86
2018-08-19T03:38:27.285Z,20.86
2018-08-19T03:38:49.036Z,20.86
2018-08-19T03:39:10.791Z,20.86
2018-08-19T03:39:32.556Z,20.86
2018-08-19T03:39:54.295Z,20.86
2018-08-19T03:40:16.059Z,20.85
2018-08-19T03:40:37.809Z,20.87
2018-08-19T03:40:59.569Z,20.86
2018-08-19T03:41:21.330Z,20.86
2018-08-19T03:41:43.085Z,20.86
2018-08-19T03:42:04.842Z,20.86
2018-08-19T03:42:26.615Z,20.86
2018-08-19T03:42:48.377Z,20.86
2018-08-19T03:43:10.934Z,20.87
2018-08-19T03:43:32.694Z,20.87
2018-08-19T03:43:58.733Z,20.87
2018-08-19T03:44:20.481Z,20.86
2018-08-19T03:44:42.497Z,20.87
2018-08-19T03:45:09.764Z,20.87
2018-08-19T03:45:31.536Z,20.87
2018-08-19T03:45:53.324Z,20.86
2018-08-19T03:46:19.572Z,20.86
2018-08-19T03:46:41.342Z,20.85
2018-08-19T03:47:07.584Z,20.85
2018-08-19T03:47:29.358Z,20.85
2018-08-19T03:47:52.965Z,20.85
2018-08-19T03:48:14.711Z,20.87
2018-08-19T03:48:36.450Z,20.86
2018-08-19T03:48:58.219Z,20.86
2018-08-19T03:49:19.976Z,20.86
2018-08-19T03:49:41.795Z,20.85
2018-08-19T03:50:07.798Z,20.86
2018-08-19T03:50:29.546Z,20.88
2018-08-19T03:50:51.306Z,20.86
2018-08-19T03:51:13.063Z,20.86
2018-08-19T03:51:34.806Z,20.86
2018-08-19T03:51:56.555Z,20.86
2018-08-19T03:52:18.364Z,20.86
2018-08-19T03:52:40.151Z,20.86
2018-08-19T03:53:01.922Z,20.86
2018-08-19T03:53:23.666Z,20.86
2018-08-19T03:53:45.425Z,20.88
2018-08-19T03:54:07.165Z,20.87
2018-08-19T03:54:28.910Z,20.88
2018-08-19T03:54:50.679Z,20.86
2018-08-19T03:55:16.487Z,20.86
2018-08-19T03:55:38.260Z,20.85
2018-08-19T03:56:00.006Z,20.86
2018-08-19T03:56:27.200Z,20.86
2018-08-19T03:56:48.963Z,20.85
2018-08-19T03:57:10.710Z,20.86
2018-08-19T03:57:32.466Z,20.85
2018-08-19T03:57:56.113Z,20.87
2018-08-19T03:58:17.872Z,20.87
2018-08-19T03:58:39.630Z,20.87
2018-08-19T03:59:05.930Z,20.87
2018-08-19T03:59:27.704Z,20.87
2018-08-19T03:59:49.472Z,20.86
2018-08-19T04:00:11.232Z,20.86
2018-08-19T04:00:35.003Z,20.86
2018-08-19T04:00:56.747Z,20.86
2018-08-19T04:01:18.503Z,20.86
2018-08-19T04:01:43.405Z,20.86
2018-08-19T04:02:05.164Z,20.87
2018-08-19T04:02:26.907Z,20.86
2018-08-19T04:02:48.663Z,20.86
2018-08-19T04:03:15.988Z,20.87
2018-08-19T04:03:37.742Z,20.86
2018-08-19T04:03:59.494Z,20.89
2018-08-19T04:04:21.234Z,20.84
2018-08-19T04:04:43.041Z,20.86
2018-08-19T04:05:04.798Z,20.88
2018-08-19T04:05:30.799Z,20.86
2018-08-19T04:05:53.571Z,20.86
2018-08-19T04:06:15.328Z,20.87
2018-08-19T04:06:38.618Z,20.86
2018-08-19T04:07:00.372Z,20.86
2018-08-19T04:07:22.124Z,20.88
2018-08-19T04:07:44.235Z,20.85
2018-08-19T04:08:05.987Z,20.86
2018-08-19T04:08:33.284Z,20.86
2018-08-19T04:08:55.042Z,20.86
2018-08-19T04:09:16.804Z,20.86
2018-08-19T04:09:38.563Z,20.85
2018-08-19T04:10:00.315Z,20.85
2018-08-19T04:10:22.070Z,20.86
2018-08-19T04:10:45.011Z,20.86
2018-08-19T04:11:06.766Z,20.86
2018-08-19T04:11:28.531Z,20.86
2018-08-19T04:11:50.266Z,20.85
2018-08-19T04:12:12.444Z,20.84
2018-08-19T04:12:34.207Z,20.86
2018-08-19T04:12:55.999Z,20.85
2018-08-19T04:13:20.848Z,20.85
2018-08-19T04:13:42.648Z,20.86
2018-08-19T04:14:04.396Z,20.84
2018-08-19T04:14:26.609Z,20.85
2018-08-19T04:14:48.359Z,20.86
2018-08-19T04:15:10.708Z,20.85
2018-08-19T04:15:32.474Z,20.85
2018-08-19T04:15:56.290Z,20.85
2018-08-19T04:16:18.043Z,20.85
2018-08-19T04:16:39.813Z,20.84
2018-08-19T04:17:02.251Z,20.85
2018-08-19T04:17:24.012Z,20.84
2018-08-19T04:17:45.780Z,20.85
2018-08-19T04:18:07.548Z,20.86
2018-08-19T04:18:35.230Z,20.85
2018-08-19T04:19:11.879Z,20.84
2018-08-19T04:19:33.642Z,20.85
2018-08-19T04:19:55.388Z,20.85
2018-08-19T04:20:17.147Z,20.86
2018-08-19T04:20:38.909Z,20.85
2018-08-19T04:21:03.298Z,20.86
2018-08-19T04:21:25.075Z,20.85
2018-08-19T04:21:46.827Z,20.85
2018-08-19T04:22:08.571Z,20.86
2018-08-19T04:22:30.367Z,20.85
2018-08-19T04:22:52.130Z,20.86
2018-08-19T04:23:13.904Z,20.85
2018-08-19T04:23:36.262Z,20.85
2018-08-19T04:23:57.955Z,20.85
2018-08-19T04:24:19.739Z,20.85
2018-08-19T04:24:41.500Z,20.86
2018-08-19T04:25:03.276Z,20.84
2018-08-19T04:25:30.505Z,20.85
2018-08-19T04:25:52.272Z,20.84
2018-08-19T04:26:14.037Z,20.85
2018-08-19T04:26:35.810Z,20.84
2018-08-19T04:26:57.692Z,20.84
2018-08-19T04:27:19.446Z,20.85
2018-08-19T04:27:41.191Z,20.85
2018-08-19T04:28:03.734Z,20.85
2018-08-19T04:28:25.491Z,20.85
2018-08-19T04:28:47.239Z,20.87
2018-08-19T04:29:13.382Z,20.86
2018-08-19T04:29:35.604Z,20.87
2018-08-19T04:29:57.369Z,20.87
2018-08-19T04:30:19.114Z,20.86
2018-08-19T04:30:40.864Z,20.86
2018-08-19T04:31:02.618Z,20.86
2018-08-19T04:31:24.747Z,20.86
2018-08-19T04:31:46.510Z,20.86
2018-08-19T04:32:08.254Z,20.84
2018-08-19T04:32:30.015Z,20.84
2018-08-19T04:32:51.767Z,20.85
2018-08-19T04:33:13.512Z,20.84
2018-08-19T04:33:35.255Z,20.85
2018-08-19T04:33:57.002Z,20.85
2018-08-19T04:34:18.746Z,20.84
2018-08-19T04:34:40.530Z,20.85
2018-08-19T04:35:02.296Z,20.85
2018-08-19T04:35:24.049Z,20.85
2018-08-19T04:35:45.812Z,20.85
2018-08-19T04:36:07.558Z,20.85
2018-08-19T04:36:29.319Z,20.84
2018-08-19T04:36:51.071Z,20.84
2018-08-19T04:37:12.820Z,20.84
2018-08-19T04:37:34.583Z,20.84
2018-08-19T04:37:56.326Z,20.85
2018-08-19T04:38:18.067Z,20.84
2018-08-19T04:38:39.818Z,20.84
2018-08-19T04:39:01.572Z,20.85
2018-08-19T04:39:23.378Z,20.86
2018-08-19T04:39:45.167Z,20.84
2018-08-19T04:40:06.924Z,20.85
2018-08-19T04:40:28.685Z,20.85
2018-08-19T04:40:50.711Z,20.85
2018-08-19T04:41:12.732Z,20.85
2018-08-19T04:41:34.535Z,20.86
2018-08-19T04:41:56.466Z,20.85
2018-08-19T04:42:18.272Z,20.85
2018-08-19T04:42:40.043Z,20.85
2018-08-19T04:43:01.803Z,20.85
2018-08-19T04:43:27.684Z,20.84
2018-08-19T04:43:49.443Z,20.85
2018-08-19T04:44:11.215Z,20.85
2018-08-19T04:44:33.014Z,20.84
2018-08-19T04:44:54.773Z,20.85
2018-08-19T04:45:16.524Z,20.85
2018-08-19T04:45:38.292Z,20.85
2018-08-19T04:46:00.048Z,20.85
2018-08-19T04:46:21.807Z,20.86
2018-08-19T04:46:43.589Z,20.84
2018-08-19T04:47:05.330Z,20.86
2018-08-19T04:47:27.078Z,20.84
2018-08-19T04:47:48.855Z,20.85